createdAt,value
2018-05-13T00:01:22.595Z,100839.77
2018-05-13T00:04:02.407Z,100831.16
2018-05-13T00:06:42.719Z,100826.61
2018-05-13T00:09:21.733Z,100820.73
2018-05-13T00:11:55.678Z,100820.08
2018-05-13T00:14:32.444Z,100820.51
2018-05-13T00:17:13.044Z,100822.84
2018-05-13T00:19:51.215Z,100828.57
2018-05-13T00:22:28.860Z,100829.03
2018-05-13T00:25:13.196Z,100831.73
2018-05-13T00:27:50.696Z,100833.48
2018-05-13T00:30:27.399Z,100836.11
2018-05-13T00:33:08.655Z,100834.83
2018-05-13T00:35:52.984Z,100833.41
2018-05-13T00:38:25.798Z,100835.69
2018-05-13T00:40:59.293Z,100839.95
2018-05-13T00:43:35.264Z,100841.23
2018-05-13T00:46:05.767Z,100844.79
2018-05-13T00:48:34.992Z,100848.84
2018-05-13T00:51:09.140Z,100841.14
2018-05-13T00:53:46.365Z,100842.92
2018-05-13T00:56:24.953Z,100839.52
2018-05-13T00:58:59.424Z,100836.48
2018-05-13T01:01:28.535Z,100834.48
2018-05-13T01:04:00.202Z,100831.92
2018-05-13T01:06:39.941Z,100832.50
2018-05-13T01:09:16.825Z,100835.47
2018-05-13T01:11:47.221Z,100830.72
2018-05-13T01:14:15.851Z,100834.06
2018-05-13T01:16:44.967Z,100833.72
2018-05-13T01:19:19.540Z,100827.53
2018-05-13T01:22:02.668Z,100820.23
2018-05-13T01:24:32.667Z,100826.03
2018-05-13T01:27:01.776Z,100822.14
2018-05-13T01:29:30.886Z,100818.73
2018-05-13T01:32:06.604Z,100799.91
2018-05-13T01:34:48.395Z,100807.14
2018-05-13T01:37:22.449Z,100802.61
2018-05-13T01:39:51.571Z,100799.97
2018-05-13T01:42:20.711Z,100802.12
2018-05-13T01:44:58.194Z,100820.20
2018-05-13T01:47:35.229Z,100824.90
2018-05-13T01:50:09.719Z,100821.28
2018-05-13T01:52:38.840Z,100825.33
2018-05-13T01:55:07.959Z,100827.59
2018-05-13T01:57:44.398Z,100834.86
2018-05-13T02:00:21.654Z,100832.59
2018-05-13T02:02:59.749Z,100829.41
2018-05-13T02:05:30.618Z,100820.95
2018-05-13T02:08:00.036Z,100825.42
2018-05-13T02:10:33.862Z,100824.14
2018-05-13T02:13:11.125Z,100822.23
2018-05-13T02:15:49.146Z,100819.23
2018-05-13T02:18:20.015Z,100818.41
2018-05-13T02:20:49.125Z,100817.42
2018-05-13T02:23:23.723Z,100820.92
2018-05-13T02:26:02.161Z,100832.47
2018-05-13T02:28:49.770Z,100838.14
2018-05-13T02:31:20.142Z,100835.29
2018-05-13T02:33:49.281Z,100839.98
2018-05-13T02:36:22.404Z,100835.73
2018-05-13T02:38:56.360Z,100835.08
2018-05-13T02:41:35.118Z,100832.05
2018-05-13T02:44:07.410Z,100834.96
2018-05-13T02:46:36.531Z,100830.91
2018-05-13T02:49:08.793Z,100830.23
2018-05-13T02:51:47.626Z,100830.33
2018-05-13T02:54:22.712Z,100836.47
2018-05-13T02:56:52.220Z,100839.01
2018-05-13T02:59:21.740Z,100843.55
2018-05-13T03:01:50.862Z,100846.98
2018-05-13T03:04:28.026Z,100845.84
2018-05-13T03:07:18.848Z,100840.87
2018-05-13T03:09:54.374Z,100840.94
2018-05-13T03:12:23.493Z,100848.81
2018-05-13T03:14:52.603Z,100847.28
2018-05-13T03:17:30.702Z,100844.92
2018-05-13T03:20:07.566Z,100848.91
2018-05-13T03:22:41.797Z,100857.64
2018-05-13T03:25:11.005Z,100868.95
2018-05-13T03:27:40.157Z,100875.23
2018-05-13T03:30:20.853Z,100876.48
2018-05-13T03:32:55.751Z,100888.17
2018-05-13T03:35:34.322Z,100900.14
2018-05-13T03:38:04.543Z,100903.21
2018-05-13T03:40:33.999Z,100895.55
2018-05-13T03:43:18.009Z,100895.48
2018-05-13T03:46:02.271Z,100886.20
2018-05-13T03:48:44.461Z,100877.59
2018-05-13T03:51:14.214Z,100883.91
2018-05-13T03:53:44.123Z,100901.44
2018-05-13T03:56:20.063Z,100894.27
2018-05-13T03:58:50.927Z,100904.50
2018-05-13T04:04:20.601Z,100910.94
2018-05-13T04:07:09.558Z,100916.94
2018-05-13T04:10:05.700Z,100919.61
2018-05-13T04:26:28.360Z,100936.42
2018-05-13T04:32:01.822Z,100931.83
2018-05-13T04:34:42.758Z,100939.70
2018-05-13T04:37:17.022Z,100942.42
2018-05-13T04:40:01.519Z,100949.16
2018-05-13T04:42:34.940Z,100948.59
2018-05-13T04:47:54.662Z,100954.23
2018-05-13T04:50:41.847Z,100965.63
2018-05-13T04:53:19.859Z,100965.63
2018-05-13T04:55:53.868Z,100973.75
2018-05-13T04:58:36.038Z,100976.51
2018-05-13T05:01:09.466Z,100985.11
2018-05-13T05:06:32.104Z,100999.63
2018-05-13T05:09:15.260Z,101006.31
2018-05-13T05:11:50.130Z,101016.17
2018-05-13T05:14:30.133Z,101010.78
2018-05-13T05:17:05.921Z,101009.58
2018-05-13T05:19:48.137Z,101014.95
2018-05-13T05:22:32.171Z,101026.68
2018-05-13T05:25:05.814Z,101035.40
2018-05-13T05:27:38.510Z,101036.97
2018-05-13T05:30:28.021Z,101043.57
2018-05-13T05:33:01.521Z,101036.69
2018-05-13T05:35:31.075Z,101030.09
2018-05-13T05:38:00.208Z,101028.23
2018-05-13T05:40:35.499Z,101033.19
2018-05-13T05:43:16.475Z,101040.42
2018-05-13T05:45:48.942Z,101043.69
2018-05-13T05:48:18.143Z,101047.81
2018-05-13T05:50:47.398Z,101057.73
2018-05-13T05:53:28.140Z,101060.95
2018-05-13T05:56:11.603Z,101052.55
2018-05-13T05:58:41.930Z,101052.55
2018-05-13T06:01:10.919Z,101043.97
2018-05-13T06:03:40.036Z,101033.67
2018-05-13T06:06:16.021Z,101032.33
2018-05-13T06:09:01.455Z,101035.05
2018-05-13T06:11:32.842Z,101039.56
2018-05-13T06:14:02.131Z,101033.82
2018-05-13T06:16:31.259Z,101022.12
2018-05-13T06:19:09.044Z,101031.92
2018-05-13T06:21:48.811Z,101032.27
2018-05-13T06:24:21.546Z,101021.11
2018-05-13T06:26:50.711Z,101006.44
2018-05-13T06:29:19.840Z,101003.63
2018-05-13T06:31:51.713Z,101010.97
2018-05-13T06:37:17.990Z,101023.81
2018-05-13T06:39:47.828Z,101034.67
2018-05-13T06:42:17.302Z,101048.49
2018-05-13T06:44:53.346Z,101051.76
2018-05-13T06:47:31.904Z,101050.84
2018-05-13T06:50:06.433Z,101051.27
2018-05-13T06:52:36.824Z,101059.36
2018-05-13T06:55:05.966Z,101075.64
2018-05-13T06:57:35.087Z,101084.30
2018-05-13T07:00:13.828Z,101080.63
2018-05-13T07:02:51.062Z,101061.39
2018-05-13T07:05:22.805Z,101045.50
2018-05-13T07:07:52.271Z,101039.68
2018-05-13T07:10:21.499Z,101054.85
2018-05-13T07:13:05.558Z,101084.98
2018-05-13T07:15:49.013Z,101102.67
2018-05-13T07:18:18.896Z,101105.02
2018-05-13T07:20:48.043Z,101101.89
2018-05-13T07:23:17.161Z,101104.51
2018-05-13T07:25:52.314Z,101115.99
2018-05-13T07:28:32.172Z,101117.31
2018-05-13T07:31:01.999Z,101121.03
2018-05-13T07:33:31.124Z,101127.02
2018-05-13T07:36:00.288Z,101135.05
2018-05-13T07:38:37.200Z,101137.98
2018-05-13T07:41:11.463Z,101138.52
2018-05-13T07:43:43.413Z,101126.83
2018-05-13T07:46:12.840Z,101127.69
2018-05-13T07:48:42.307Z,101125.83
2018-05-13T07:51:17.849Z,101126.88
2018-05-13T07:53:55.343Z,101116.48
2018-05-13T07:56:29.851Z,101120.28
2018-05-13T07:58:59.043Z,101126.13
2018-05-13T08:01:28.159Z,101120.28
2018-05-13T08:04:05.565Z,101125.08
2018-05-13T08:10:12.127Z,101136.34
2018-05-13T08:12:53.722Z,101139.59
2018-05-13T08:15:24.436Z,101135.85
2018-05-13T08:17:56.894Z,101138.72
2018-05-13T08:20:34.967Z,101138.11
2018-05-13T08:23:24.629Z,101131.73
2018-05-13T08:32:15.359Z,101125.08
2018-05-13T08:34:49.023Z,101120.60
2018-05-13T08:37:18.863Z,101120.52
2018-05-13T08:39:54.015Z,101122.30
2018-05-13T08:42:37.018Z,101126.83
2018-05-13T08:48:29.100Z,101135.24
2018-05-13T08:53:56.953Z,101140.95
2018-05-13T08:59:43.007Z,101136.91
2018-05-13T09:08:18.353Z,101141.06
2018-05-13T09:10:50.781Z,101150.06
2018-05-13T09:13:33.615Z,101175.25
2018-05-13T09:16:28.249Z,101201.88
2018-05-13T09:19:10.557Z,101212.35
2018-05-13T09:21:52.154Z,101214.99
2018-05-13T09:24:37.371Z,101213.03
2018-05-13T09:27:29.903Z,101212.11
2018-05-13T09:30:22.992Z,101214.86
2018-05-13T09:38:36.323Z,101237.47
2018-05-13T09:53:49.792Z,101208.26
2018-05-13T09:56:38.413Z,101195.30
2018-05-13T09:59:16.705Z,101192.22
2018-05-13T10:04:51.105Z,101174.58
2018-05-13T10:07:39.202Z,101164.23
2018-05-13T10:13:31.438Z,101199.34
2018-05-13T10:16:14.749Z,101207.72
2018-05-13T10:18:52.614Z,101209.53
2018-05-13T10:24:27.258Z,101195.59
2018-05-13T10:30:01.299Z,101202.73
2018-05-13T10:35:36.333Z,101200.05
2018-05-13T10:38:11.561Z,101201.03
2018-05-13T10:43:57.281Z,101222.46
2018-05-13T10:46:47.173Z,101223.24
2018-05-13T10:52:16.659Z,101231.45
2018-05-13T10:58:04.228Z,101230.05
2018-05-13T11:06:39.817Z,101246.63
2018-05-13T11:12:04.932Z,101241.56
2018-05-13T11:17:48.433Z,101239.78
2018-05-13T11:20:45.911Z,101248.73
2018-05-13T11:23:47.351Z,101245.72
2018-05-13T11:26:43.000Z,101248.22
2018-05-13T11:29:21.113Z,101245.27
2018-05-13T11:50:32.768Z,101245.80
2018-05-13T11:56:24.619Z,101243.88
2018-05-13T12:15:50.949Z,101255.77
2018-05-13T12:18:43.208Z,101250.80
2018-05-13T12:21:31.346Z,101248.97
2018-05-13T12:24:14.942Z,101244.55
2018-05-13T12:27:08.149Z,101249.05
2018-05-13T12:29:46.907Z,101247.76
2018-05-13T12:32:25.989Z,101251.23
2018-05-13T12:35:06.629Z,101250.75
2018-05-13T12:37:56.650Z,101252.64
2018-05-13T12:40:47.826Z,101259.80
2018-05-13T12:43:33.308Z,101264.70
2018-05-13T12:46:11.996Z,101265.19
2018-05-13T12:48:54.996Z,101253.09
2018-05-13T12:54:35.120Z,101251.42
2018-05-13T12:57:26.251Z,101253.09
2018-05-13T13:00:06.726Z,101254.72
2018-05-13T13:02:56.125Z,101255.28
2018-05-13T13:05:45.781Z,101255.70
2018-05-13T13:08:36.186Z,101259.75
2018-05-13T13:11:27.123Z,101269.18
2018-05-13T13:17:02.009Z,101283.56
2018-05-13T13:22:44.244Z,101283.64
2018-05-13T13:25:21.321Z,101283.77
2018-05-13T13:28:03.799Z,101287.31
2018-05-13T13:30:52.138Z,101281.36
2018-05-13T13:33:37.543Z,101281.19
2018-05-13T13:36:19.792Z,101280.87
2018-05-13T13:41:56.394Z,101296.63
2018-05-13T13:44:33.376Z,101294.83
2018-05-13T13:47:17.424Z,101293.92
2018-05-13T13:55:46.177Z,101292.89
2018-05-13T13:58:35.969Z,101304.72
2018-05-13T14:05:18.513Z,101300.35
2018-05-13T14:10:54.762Z,101304.28
2018-05-13T14:13:38.027Z,101308.38
2018-05-13T14:16:31.295Z,101303.86
2018-05-13T14:19:16.907Z,101310.52
2018-05-13T14:22:00.600Z,101313.16
2018-05-13T14:24:56.562Z,101311.43
2018-05-13T14:27:32.477Z,101304.47
2018-05-13T14:30:06.652Z,101303.91
2018-05-13T14:35:41.228Z,101302.94
2018-05-13T14:38:23.980Z,101295.47
2018-05-13T14:41:13.690Z,101295.09
2018-05-13T14:43:52.160Z,101292.60
2018-05-13T14:46:33.645Z,101287.81
2018-05-13T14:49:25.468Z,101284.62
2018-05-13T14:52:10.314Z,101287.57
2018-05-13T14:54:54.080Z,101282.23
2018-05-13T14:57:41.880Z,101283.61
2018-05-13T15:00:32.060Z,101280.46
2018-05-13T15:03:24.156Z,101289.59
2018-05-13T15:06:01.189Z,101291.80
2018-05-13T15:08:44.095Z,101294.64
2018-05-13T15:11:24.047Z,101291.95
2018-05-13T15:14:04.540Z,101296.32
2018-05-13T15:16:43.992Z,101293.22
2018-05-13T15:19:36.969Z,101302.29
2018-05-13T15:22:20.118Z,101304.73
2018-05-13T15:25:01.726Z,101305.95
2018-05-13T15:27:47.471Z,101307.86
2018-05-13T15:33:16.397Z,101308.04
2018-05-13T15:36:06.874Z,101304.08
2018-05-13T15:38:48.793Z,101305.22
2018-05-13T15:41:32.841Z,101305.34
2018-05-13T15:44:21.808Z,101313.43
2018-05-13T15:47:07.524Z,101319.12
2018-05-13T15:49:50.777Z,101312.00
2018-05-13T15:52:31.891Z,101313.50
2018-05-13T15:55:04.846Z,101313.43
2018-05-13T15:57:54.938Z,101309.44
2018-05-13T16:00:31.504Z,101307.20
2018-05-13T16:03:16.784Z,101305.30
2018-05-13T16:06:04.478Z,101301.89
2018-05-13T16:08:56.034Z,101297.19
2018-05-13T16:11:46.667Z,101295.55
2018-05-13T16:14:35.083Z,101284.36
2018-05-13T16:17:20.792Z,101291.04
2018-05-13T16:20:07.656Z,101282.52
2018-05-13T16:22:58.118Z,101286.97
2018-05-13T16:28:29.553Z,101284.16
2018-05-13T16:31:03.140Z,101282.40
2018-05-13T16:33:41.369Z,101275.77
2018-05-13T16:36:16.764Z,101274.50
2018-05-13T16:38:50.867Z,101272.23
2018-05-13T16:41:35.097Z,101279.38
2018-05-13T16:44:14.833Z,101275.77
2018-05-13T16:46:50.488Z,101280.24
2018-05-13T16:49:40.905Z,101285.38
2018-05-13T16:52:18.926Z,101296.70
2018-05-13T16:54:59.377Z,101296.22
2018-05-13T16:57:40.594Z,101294.87
2018-05-13T17:00:15.612Z,101291.21
2018-05-13T17:02:50.387Z,101288.70
2018-05-13T17:05:33.420Z,101288.27
2018-05-13T17:08:07.746Z,101298.05
2018-05-13T17:10:38.110Z,101289.56
2018-05-13T17:13:11.378Z,101295.73
2018-05-13T17:16:02.623Z,101297.70
2018-05-13T17:18:51.391Z,101304.43
2018-05-13T17:21:49.460Z,101299.89
2018-05-13T17:24:24.217Z,101314.23
2018-05-13T17:27:09.191Z,101311.72
2018-05-13T17:33:08.692Z,101320.29
2018-05-13T17:35:51.823Z,101323.45
2018-05-13T17:38:41.041Z,101310.47
2018-05-13T17:41:27.593Z,101311.01
2018-05-13T17:44:11.109Z,101322.84
2018-05-13T17:52:33.490Z,101327.92
2018-05-13T17:55:18.090Z,101343.34
2018-05-13T18:00:42.226Z,101357.53
2018-05-13T18:03:17.099Z,101356.13
2018-05-13T18:06:04.405Z,101361.21
2018-05-13T18:08:40.286Z,101360.38
2018-05-13T18:11:24.049Z,101364.52
2018-05-13T18:14:00.391Z,101363.17
2018-05-13T18:16:37.237Z,101358.22
2018-05-13T18:19:17.971Z,101364.39
2018-05-13T18:21:56.001Z,101367.28
2018-05-13T18:24:38.644Z,101369.36
2018-05-13T18:30:01.186Z,101367.71
2018-05-13T18:35:20.400Z,101368.50
2018-05-13T18:38:03.889Z,101371.42
2018-05-13T18:40:41.674Z,101362.13
2018-05-13T18:43:23.573Z,101367.81
2018-05-13T18:45:59.285Z,101364.03
2018-05-13T18:48:40.816Z,101364.69
2018-05-13T18:51:17.372Z,101367.83
2018-05-13T18:53:54.848Z,101363.17
2018-05-13T18:56:32.340Z,101364.56
2018-05-13T18:59:02.084Z,101362.33
2018-05-13T19:01:38.844Z,101360.72
2018-05-13T19:07:08.349Z,101362.45
2018-05-13T19:10:03.791Z,101355.28
2018-05-13T19:12:40.215Z,101359.93
2018-05-13T19:15:21.587Z,101365.87
2018-05-13T19:18:08.143Z,101360.11
2018-05-13T19:23:36.064Z,101360.54
2018-05-13T19:26:10.230Z,101357.34
2018-05-13T19:28:54.098Z,101353.43
2018-05-13T19:34:52.543Z,101353.62
2018-05-13T19:37:43.269Z,101361.28
2018-05-13T19:43:00.388Z,101354.95
2018-05-13T19:45:50.743Z,101350.08
2018-05-13T19:48:28.154Z,101351.42
2018-05-13T19:51:14.078Z,101346.95
2018-05-13T19:54:00.454Z,101350.20
2018-05-13T19:56:38.590Z,101346.27
2018-05-13T19:59:18.701Z,101343.09
2018-05-13T20:01:54.035Z,101339.17
2018-05-13T20:04:34.497Z,101335.26
2018-05-13T20:07:10.346Z,101332.92
2018-05-13T20:09:51.539Z,101332.19
2018-05-13T20:12:36.515Z,101326.02
2018-05-13T20:15:16.016Z,101323.20
2018-05-13T20:17:58.722Z,101319.16
2018-05-13T20:20:37.333Z,101322.28
2018-05-13T20:23:23.646Z,101324.54
2018-05-13T20:26:00.030Z,101317.52
2018-05-13T20:28:41.495Z,101315.87
2018-05-13T20:31:22.272Z,101321.23
2018-05-13T20:34:00.446Z,101329.76
2018-05-13T20:36:36.655Z,101323.03
2018-05-13T20:39:07.315Z,101324.69
2018-05-13T20:41:40.274Z,101323.08
2018-05-13T20:44:19.353Z,101322.17
2018-05-13T20:46:59.054Z,101325.90
2018-05-13T20:49:29.776Z,101324.30
2018-05-13T20:51:58.914Z,101324.37
2018-05-13T20:54:32.627Z,101321.97
2018-05-13T20:57:06.005Z,101315.37
2018-05-13T20:59:48.625Z,101312.13
2018-05-13T21:02:20.547Z,101317.16
2018-05-13T21:04:49.719Z,101318.13
2018-05-13T21:07:20.777Z,101317.64
2018-05-13T21:10:01.453Z,101324.78
2018-05-13T21:12:41.320Z,101324.47
2018-05-13T21:15:13.358Z,101324.59
2018-05-13T21:17:43.088Z,101323.87
2018-05-13T21:20:20.356Z,101325.09
2018-05-13T21:23:01.841Z,101330.61
2018-05-13T21:25:36.211Z,101332.98
2018-05-13T21:28:12.579Z,101328.94
2018-05-13T21:30:41.691Z,101319.59
2018-05-13T21:33:12.653Z,101323.75
2018-05-13T21:35:51.635Z,101320.67
2018-05-13T21:38:29.818Z,101318.19
2018-05-13T21:41:02.428Z,101313.84
2018-05-13T21:43:31.903Z,101317.64
2018-05-13T21:46:01.018Z,101314.20
2018-05-13T21:48:34.580Z,101317.86
2018-05-13T21:51:09.829Z,101322.33
2018-05-13T21:53:47.932Z,101322.41
2018-05-13T21:56:17.925Z,101329.32
2018-05-13T21:58:47.099Z,101330.79
2018-05-13T22:01:27.033Z,101325.51
2018-05-13T22:04:03.906Z,101318.73
2018-05-13T22:06:44.518Z,101325.83
2018-05-13T22:09:14.693Z,101323.80
2018-05-13T22:11:44.687Z,101326.80
2018-05-13T22:14:21.868Z,101331.34
2018-05-13T22:16:58.275Z,101328.84
2018-05-13T22:19:33.608Z,101332.75
2018-05-13T22:22:03.707Z,101334.15
2018-05-13T22:24:32.848Z,101330.04
2018-05-13T22:27:09.656Z,101325.54
2018-05-13T22:29:44.971Z,101317.13
2018-05-13T22:32:23.915Z,101307.23
2018-05-13T22:34:54.648Z,101315.19
2018-05-13T22:37:23.763Z,101313.70
2018-05-13T22:39:59.152Z,101315.48
2018-05-13T22:42:38.404Z,101323.50
2018-05-13T22:45:18.899Z,101321.63
2018-05-13T22:47:52.299Z,101319.66
2018-05-13T22:50:22.035Z,101324.47
2018-05-13T22:52:55.034Z,101320.43
2018-05-13T22:55:30.503Z,101319.53
2018-05-13T22:58:07.532Z,101314.13
2018-05-13T23:00:42.356Z,101318.19
2018-05-13T23:03:12.023Z,101324.11
2018-05-13T23:05:43.175Z,101327.73
2018-05-13T23:08:19.506Z,101332.23
2018-05-13T23:10:54.897Z,101334.02
2018-05-13T23:13:30.072Z,101329.02
2018-05-13T23:15:59.838Z,101321.16
2018-05-13T23:18:30.049Z,101310.83
2018-05-13T23:21:04.861Z,101317.02
2018-05-13T23:23:37.371Z,101311.86
2018-05-13T23:26:14.449Z,101309.12
2018-05-13T23:28:44.637Z,101313.66
2018-05-13T23:31:14.778Z,101318.11
2018-05-13T23:33:45.767Z,101318.17
2018-05-13T23:36:21.098Z,101312.97
2018-05-13T23:38:58.573Z,101305.07
2018-05-13T23:41:28.842Z,101305.07
2018-05-13T23:44:02.501Z,101298.17
2018-05-13T23:46:34.414Z,101291.51
2018-05-13T23:49:11.478Z,101285.21
2018-05-13T23:54:39.585Z,101271.50
